createdAt,value
2022-08-09T00:02:49.178Z,99.90
2022-08-09T00:06:18.224Z,99.90
2022-08-09T00:08:32.442Z,99.90
2022-08-09T00:11:00.558Z,99.90
2022-08-09T00:13:34.285Z,99.90
2022-08-09T00:16:07.520Z,99.90
2022-08-09T00:18:46.297Z,99.90
2022-08-09T00:21:13.346Z,99.90
2022-08-09T00:23:55.531Z,99.90
2022-08-09T00:26:34.352Z,99.90
2022-08-09T00:29:12.358Z,99.90
2022-08-09T00:32:00.686Z,99.90
2022-08-09T00:34:27.959Z,99.90
2022-08-09T00:37:06.304Z,99.90
2022-08-09T00:40:09.471Z,99.90
2022-08-09T00:44:09.817Z,99.90
2022-08-09T00:45:21.895Z,99.90
2022-08-09T00:47:55.470Z,99.90
2022-08-09T00:50:22.841Z,99.90
2022-08-09T00:52:50.227Z,99.90
2022-08-09T00:56:02.919Z,99.90
2022-08-09T00:58:10.136Z,99.90
2022-08-09T01:00:50.315Z,99.90
2022-08-09T01:03:28.484Z,99.90
2022-08-09T01:06:13.902Z,99.90
2022-08-09T01:09:15.335Z,99.90
2022-08-09T01:11:57.361Z,99.90
2022-08-09T01:14:43.287Z,99.90
2022-08-09T01:17:23.293Z,99.90
2022-08-09T01:20:08.328Z,99.90
2022-08-09T01:22:55.185Z,99.90
2022-08-09T01:25:48.826Z,99.90
2022-08-09T01:28:26.292Z,99.90
2022-08-09T01:31:03.312Z,99.90
2022-08-09T01:33:40.398Z,99.90
2022-08-09T01:36:26.315Z,99.90
2022-08-09T01:39:16.316Z,99.90
2022-08-09T01:42:00.625Z,99.90
2022-08-09T01:44:29.869Z,99.90
2022-08-09T01:47:05.275Z,99.90
2022-08-09T01:49:39.232Z,99.90
2022-08-09T01:52:19.338Z,99.90
2022-08-09T01:54:57.287Z,99.90
2022-08-09T01:57:50.700Z,99.90
2022-08-09T02:00:35.081Z,99.90
2022-08-09T02:03:13.821Z,99.90
2022-08-09T02:06:03.642Z,99.90
2022-08-09T02:08:57.179Z,99.90
2022-08-09T02:11:42.672Z,99.90
2022-08-09T02:14:25.626Z,99.90
2022-08-09T02:17:00.093Z,99.90
2022-08-09T02:19:49.273Z,99.90
2022-08-09T02:22:38.618Z,99.90
2022-08-09T02:25:21.325Z,99.90
2022-08-09T02:28:09.644Z,99.90
2022-08-09T02:30:41.958Z,99.90
2022-08-09T02:33:22.993Z,99.90
2022-08-09T02:36:03.294Z,99.90
2022-08-09T02:38:47.625Z,99.90
2022-08-09T02:41:27.051Z,99.90
2022-08-09T02:44:19.873Z,99.90
2022-08-09T02:47:01.724Z,99.90
2022-08-09T02:49:41.584Z,99.90
2022-08-09T02:52:20.352Z,99.90
2022-08-09T02:54:54.145Z,99.90
2022-08-09T02:57:31.303Z,99.90
2022-08-09T03:00:25.613Z,99.90
2022-08-09T03:03:02.399Z,99.90
2022-08-09T03:05:34.537Z,99.90
2022-08-09T03:08:10.294Z,99.90
2022-08-09T03:10:39.589Z,99.90
2022-08-09T03:13:18.278Z,99.90
2022-08-09T03:16:06.138Z,99.90
2022-08-09T03:18:39.281Z,99.90
2022-08-09T03:21:17.352Z,99.90
2022-08-09T03:24:03.723Z,99.90
2022-08-09T03:26:33.522Z,99.90
2022-08-09T03:29:13.590Z,99.90
2022-08-09T03:31:59.976Z,99.90
2022-08-09T03:34:34.308Z,99.90
2022-08-09T03:37:02.299Z,99.90
2022-08-09T03:39:48.684Z,99.90
2022-08-09T03:42:30.777Z,99.90
2022-08-09T03:45:04.346Z,99.90
2022-08-09T03:47:40.107Z,99.90
2022-08-09T03:50:18.720Z,99.90
2022-08-09T03:52:57.834Z,99.90
2022-08-09T03:55:35.909Z,99.90
2022-08-09T03:58:16.955Z,99.90
2022-08-09T04:00:55.374Z,99.90
2022-08-09T04:03:35.274Z,99.90
2022-08-09T04:06:16.310Z,99.90
2022-08-09T04:08:50.293Z,99.90
2022-08-09T04:11:20.490Z,99.90
2022-08-09T04:14:53.916Z,99.90
2022-08-09T04:16:40.304Z,99.90
2022-08-09T04:19:15.835Z,99.90
2022-08-09T04:21:56.913Z,99.90
2022-08-09T04:24:32.325Z,99.90
2022-08-09T04:27:06.351Z,99.90
2022-08-09T04:29:35.561Z,99.90
2022-08-09T04:32:08.341Z,99.90
2022-08-09T04:34:35.493Z,99.90
2022-08-09T04:37:02.945Z,99.90
2022-08-09T04:39:40.555Z,99.90
2022-08-09T04:42:15.904Z,99.90
2022-08-09T04:44:51.352Z,99.90
2022-08-09T04:47:19.996Z,99.90
2022-08-09T04:49:54.593Z,99.90
2022-08-09T04:52:34.477Z,99.90
2022-08-09T04:55:12.752Z,99.90
2022-08-09T04:57:54.080Z,99.90
2022-08-09T05:00:25.885Z,99.90
2022-08-09T05:03:41.107Z,99.90
2022-08-09T05:06:07.520Z,99.90
2022-08-09T05:08:35.306Z,99.90
2022-08-09T05:11:02.823Z,99.90
2022-08-09T05:13:38.751Z,99.90
2022-08-09T05:16:07.230Z,99.90
2022-08-09T05:18:58.779Z,99.90
2022-08-09T05:21:46.796Z,99.90
2022-08-09T05:24:25.362Z,99.90
2022-08-09T05:26:59.348Z,99.90
2022-08-09T05:29:35.433Z,99.90
2022-08-09T05:32:09.368Z,99.90
2022-08-09T05:34:37.076Z,99.90
2022-08-09T05:37:16.314Z,99.90
2022-08-09T05:39:49.424Z,99.90
2022-08-09T05:42:28.163Z,99.90
2022-08-09T05:45:02.366Z,99.90
2022-08-09T05:47:30.315Z,99.90
2022-08-09T05:50:26.693Z,99.90
2022-08-09T05:52:55.047Z,99.90
2022-08-09T05:55:28.300Z,99.90
2022-08-09T05:58:04.329Z,99.90
2022-08-09T06:00:33.998Z,99.90
2022-08-09T06:03:03.703Z,99.90
2022-08-09T06:05:58.239Z,99.90
2022-08-09T06:08:26.979Z,99.90
2022-08-09T06:11:02.324Z,99.90
2022-08-09T06:13:43.912Z,99.90
2022-08-09T06:16:19.303Z,99.90
2022-08-09T06:18:45.962Z,99.90
2022-08-09T06:21:19.437Z,99.90
2022-08-09T06:23:58.597Z,99.90
2022-08-09T06:26:35.391Z,99.90
2022-08-09T06:29:05.068Z,99.90
2022-08-09T06:31:39.709Z,99.90
2022-08-09T06:34:29.806Z,99.90
2022-08-09T06:36:59.196Z,99.90
2022-08-09T06:39:48.830Z,99.90
2022-08-09T06:42:44.902Z,99.90
2022-08-09T06:46:07.568Z,99.90
2022-08-09T06:48:05.312Z,99.90
2022-08-09T06:50:32.097Z,99.90
2022-08-09T06:53:07.293Z,99.90
2022-08-09T06:55:34.112Z,99.90
2022-08-09T06:58:07.318Z,99.90
2022-08-09T07:00:58.714Z,99.90
2022-08-09T07:03:51.785Z,99.90
2022-08-09T07:06:19.952Z,99.90
2022-08-09T07:08:53.364Z,99.90
2022-08-09T07:11:25.215Z,99.90
2022-08-09T07:14:04.562Z,99.90
2022-08-09T07:16:47.362Z,99.90
2022-08-09T07:19:23.662Z,99.90
2022-08-09T07:21:57.783Z,99.90
2022-08-09T07:24:39.910Z,99.90
2022-08-09T07:27:10.928Z,99.90
2022-08-09T07:30:02.367Z,99.90
2022-08-09T07:32:33.582Z,99.90
2022-08-09T07:35:12.407Z,99.90
2022-08-09T07:37:45.298Z,99.90
2022-08-09T07:40:26.821Z,99.90
2022-08-09T07:43:00.949Z,99.90
2022-08-09T07:45:44.395Z,99.90
2022-08-09T07:48:28.480Z,99.90
2022-08-09T07:52:02.868Z,99.90
2022-08-09T07:54:06.877Z,99.90
2022-08-09T07:56:49.219Z,99.90
2022-08-09T07:59:34.267Z,99.90
2022-08-09T08:02:11.442Z,99.90
2022-08-09T08:04:48.960Z,99.90
2022-08-09T08:08:43.002Z,99.90
2022-08-09T08:10:10.991Z,99.90
2022-08-09T08:12:46.771Z,99.90
2022-08-09T08:15:24.209Z,99.90
2022-08-09T08:17:58.807Z,99.90
2022-08-09T08:20:29.445Z,99.90
2022-08-09T08:23:16.673Z,99.90
2022-08-09T08:25:50.135Z,99.90
2022-08-09T08:28:32.890Z,99.90
2022-08-09T08:31:14.927Z,99.90
2022-08-09T08:33:53.081Z,99.90
2022-08-09T08:36:30.736Z,99.90
2022-08-09T08:38:58.855Z,99.90
2022-08-09T08:41:50.874Z,99.90
2022-08-09T08:44:22.962Z,99.90
2022-08-09T08:47:04.450Z,99.90
2022-08-09T08:49:46.930Z,99.90
2022-08-09T08:55:23.410Z,99.90
2022-08-09T08:57:59.430Z,99.90
2022-08-09T09:00:38.344Z,99.90
2022-08-09T09:03:20.782Z,99.90
2022-08-09T09:05:58.367Z,99.90
2022-08-09T09:08:42.414Z,99.90
2022-08-09T09:11:17.700Z,99.90
2022-08-09T09:13:58.478Z,99.90
2022-08-09T09:16:35.048Z,99.90
2022-08-09T09:19:40.739Z,99.90
2022-08-09T09:22:07.593Z,99.90
2022-08-09T09:26:02.346Z,99.90
2022-08-09T09:28:05.449Z,99.90
2022-08-09T09:30:42.577Z,99.90
2022-08-09T09:33:17.291Z,99.90
2022-08-09T09:36:20.654Z,99.90
2022-08-09T09:38:48.887Z,99.90
2022-08-09T09:41:48.663Z,99.90
2022-08-09T09:44:31.897Z,99.90
2022-08-09T09:47:16.408Z,99.90
2022-08-09T09:50:15.206Z,99.90
2022-08-09T09:53:01.495Z,99.90
2022-08-09T09:55:33.151Z,99.90
2022-08-09T09:58:17.246Z,99.90
2022-08-09T10:00:53.688Z,99.90
2022-08-09T10:03:58.160Z,99.90
2022-08-09T10:06:32.476Z,99.90
2022-08-09T10:09:21.518Z,99.90
2022-08-09T10:12:01.278Z,99.90
2022-08-09T10:14:47.679Z,99.90
2022-08-09T10:17:51.175Z,99.90
2022-08-09T10:20:37.310Z,99.90
2022-08-09T10:23:17.375Z,99.90
2022-08-09T10:26:06.065Z,99.90
2022-08-09T10:28:36.200Z,99.90
2022-08-09T10:34:09.637Z,99.90
2022-08-09T10:36:45.515Z,99.90
2022-08-09T10:39:19.891Z,99.90
2022-08-09T10:41:52.786Z,99.90
2022-08-09T10:44:31.794Z,99.90
2022-08-09T10:48:16.450Z,99.90
2022-08-09T10:50:30.848Z,99.90
2022-08-09T10:53:38.052Z,99.90
2022-08-09T10:56:22.773Z,99.90
2022-08-09T10:58:58.337Z,99.90
2022-08-09T11:03:13.217Z,99.90
2022-08-09T11:04:32.815Z,99.90
2022-08-09T11:07:06.386Z,99.90
2022-08-09T11:09:41.114Z,99.60
2022-08-09T11:12:29.557Z,99.90
2022-08-09T11:15:08.388Z,99.60
2022-08-09T11:17:41.793Z,99.90
2022-08-09T11:20:20.220Z,99.90
2022-08-09T11:22:57.121Z,98.30
2022-08-09T11:25:36.314Z,97.90
2022-08-09T11:28:56.499Z,97.90
2022-08-09T11:31:49.332Z,99.00
2022-08-09T11:34:30.344Z,98.60
2022-08-09T11:37:00.748Z,98.60
2022-08-09T11:39:33.759Z,99.30
2022-08-09T11:42:15.370Z,98.70
2022-08-09T11:44:46.432Z,99.90
2022-08-09T11:47:22.443Z,98.80
2022-08-09T11:50:53.578Z,97.50
2022-08-09T11:53:57.589Z,96.00
2022-08-09T11:56:02.781Z,97.80
2022-08-09T11:58:37.397Z,98.20
2022-08-09T12:01:37.526Z,97.90
2022-08-09T12:04:20.841Z,96.40
2022-08-09T12:06:55.880Z,96.10
2022-08-09T12:09:34.375Z,96.10
2022-08-09T12:12:12.304Z,97.30
2022-08-09T12:15:08.123Z,95.60
2022-08-09T12:17:41.574Z,95.00
2022-08-09T12:20:27.475Z,97.10
2022-08-09T12:23:02.949Z,96.20
2022-08-09T12:25:49.984Z,96.70
2022-08-09T12:28:58.371Z,96.70
2022-08-09T12:31:58.763Z,95.60
2022-08-09T12:34:30.961Z,97.20
2022-08-09T12:37:22.096Z,95.80
2022-08-09T12:40:27.478Z,95.10
2022-08-09T12:43:07.435Z,96.50
2022-08-09T12:45:38.371Z,97.40
2022-08-09T12:48:28.080Z,95.60
2022-08-09T12:51:03.851Z,97.40
2022-08-09T12:53:44.819Z,94.90
2022-08-09T12:56:43.045Z,94.10
2022-08-09T12:59:20.375Z,93.60
2022-08-09T13:02:00.605Z,93.60
2022-08-09T13:04:36.268Z,93.70
2022-08-09T13:07:28.433Z,94.70
2022-08-09T13:10:10.000Z,94.20
2022-08-09T13:13:10.104Z,94.70
2022-08-09T13:16:00.408Z,93.50
2022-08-09T13:18:36.370Z,93.40
2022-08-09T13:23:00.419Z,92.70
2022-08-09T13:24:53.081Z,92.60
2022-08-09T13:27:22.993Z,92.40
2022-08-09T13:30:04.215Z,91.40
2022-08-09T13:32:56.516Z,91.30
2022-08-09T13:35:25.313Z,91.40
2022-08-09T13:38:33.053Z,91.00
2022-08-09T13:41:53.918Z,91.20
2022-08-09T13:44:06.381Z,91.50
2022-08-09T13:47:16.928Z,91.80
2022-08-09T13:49:33.963Z,91.40
2022-08-09T13:52:13.382Z,91.30
2022-08-09T13:54:59.799Z,91.00
2022-08-09T13:57:39.696Z,90.70
2022-08-09T14:00:13.927Z,90.50
2022-08-09T14:05:58.352Z,89.50
2022-08-09T14:08:37.380Z,90.00
2022-08-09T14:11:16.471Z,90.30
2022-08-09T14:14:22.765Z,91.10
2022-08-09T14:16:37.381Z,91.50
2022-08-09T14:19:13.444Z,90.50
2022-08-09T14:21:40.312Z,90.30
2022-08-09T14:24:18.725Z,90.10
2022-08-09T14:26:59.490Z,90.10
2022-08-09T14:30:35.619Z,90.20
2022-08-09T14:32:28.899Z,90.40
2022-08-09T14:35:04.477Z,90.10
2022-08-09T14:37:41.094Z,90.60
2022-08-09T14:40:39.836Z,90.50
2022-08-09T14:43:19.517Z,90.20
2022-08-09T14:46:58.659Z,89.20
2022-08-09T14:48:39.073Z,87.40
2022-08-09T14:51:12.446Z,87.00
2022-08-09T14:53:39.992Z,86.60
2022-08-09T14:56:21.602Z,85.90
2022-08-09T14:58:48.488Z,86.50
2022-08-09T15:01:29.531Z,86.60
2022-08-09T15:03:56.526Z,87.20
2022-08-09T15:06:30.017Z,88.00
2022-08-09T15:08:56.950Z,89.00
2022-08-09T15:11:24.275Z,89.90
2022-08-09T15:14:04.833Z,89.40
2022-08-09T15:16:40.300Z,88.90
2022-08-09T15:19:18.017Z,89.00
2022-08-09T15:21:58.959Z,88.70
2022-08-09T15:24:29.305Z,88.60
2022-08-09T15:27:02.450Z,89.20
2022-08-09T15:30:48.627Z,88.00
2022-08-09T15:32:29.450Z,87.80
2022-08-09T15:35:00.769Z,88.30
2022-08-09T15:37:57.341Z,89.30
2022-08-09T15:40:51.365Z,87.80
2022-08-09T15:43:24.765Z,88.50
2022-08-09T15:46:18.829Z,88.10
2022-08-09T15:49:20.472Z,88.40
2022-08-09T15:52:02.425Z,87.50
2022-08-09T15:54:42.359Z,87.30
2022-08-09T15:57:34.225Z,87.20
2022-08-09T16:00:38.422Z,88.20
2022-08-09T16:03:05.304Z,88.40
2022-08-09T16:05:47.057Z,88.40
2022-08-09T16:08:31.322Z,88.30
2022-08-09T16:11:00.108Z,88.80
2022-08-09T16:14:02.680Z,89.30
2022-08-09T16:16:30.412Z,89.90
2022-08-09T16:18:57.177Z,90.10
2022-08-09T16:21:25.524Z,90.40
2022-08-09T16:24:02.633Z,90.70
2022-08-09T16:26:35.528Z,91.20
2022-08-09T16:29:21.424Z,90.80
2022-08-09T16:32:17.853Z,90.70
2022-08-09T16:34:58.669Z,90.90
2022-08-09T16:37:56.123Z,90.50
2022-08-09T16:40:29.491Z,90.80
2022-08-09T16:43:21.017Z,91.00
2022-08-09T16:45:48.070Z,91.10
2022-08-09T16:48:39.892Z,91.00
2022-08-09T16:51:21.415Z,91.30
2022-08-09T16:54:25.829Z,91.40
2022-08-09T16:56:48.922Z,91.90
2022-08-09T16:59:23.467Z,91.60
2022-08-09T17:01:56.472Z,91.70
2022-08-09T17:04:31.405Z,91.50
2022-08-09T17:08:45.244Z,91.70
2022-08-09T17:10:01.755Z,91.90
2022-08-09T17:12:28.908Z,91.90
2022-08-09T17:15:18.066Z,91.90
2022-08-09T17:17:51.540Z,91.60
2022-08-09T17:20:36.331Z,91.50
2022-08-09T17:23:05.608Z,91.70
2022-08-09T17:25:43.616Z,92.30
2022-08-09T17:28:10.445Z,92.30
2022-08-09T17:30:40.677Z,92.80
2022-08-09T17:33:22.507Z,92.80
2022-08-09T17:35:57.476Z,93.00
2022-08-09T17:38:32.909Z,93.40
2022-08-09T17:41:17.426Z,93.60
2022-08-09T17:44:04.703Z,93.80
2022-08-09T17:46:55.379Z,94.30
2022-08-09T17:49:22.863Z,94.70
2022-08-09T17:51:57.411Z,94.70
2022-08-09T17:54:25.138Z,94.80
2022-08-09T17:57:01.567Z,94.70
2022-08-09T17:59:36.558Z,94.70
2022-08-09T18:02:21.555Z,95.00
2022-08-09T18:04:52.806Z,95.00
2022-08-09T18:07:26.434Z,95.30
2022-08-09T18:10:04.310Z,95.10
2022-08-09T18:12:40.264Z,95.30
2022-08-09T18:15:14.502Z,95.20
2022-08-09T18:18:03.431Z,95.50
2022-08-09T18:20:54.310Z,95.60
2022-08-09T18:24:10.591Z,96.00
2022-08-09T18:26:18.145Z,96.30
2022-08-09T18:30:39.957Z,96.10
2022-08-09T18:31:55.889Z,96.50
2022-08-09T18:34:30.425Z,96.80
2022-08-09T18:36:57.216Z,96.90
2022-08-09T18:39:25.509Z,97.00
2022-08-09T18:41:59.470Z,97.10
2022-08-09T18:44:26.204Z,97.10
2022-08-09T18:47:37.062Z,97.20
2022-08-09T18:50:12.237Z,97.50
2022-08-09T18:52:39.369Z,97.70
2022-08-09T18:55:13.576Z,97.80
2022-08-09T18:57:48.421Z,97.90
2022-08-09T19:00:22.435Z,97.90
2022-08-09T19:02:50.848Z,98.00
2022-08-09T19:05:49.128Z,98.20
2022-08-09T19:08:20.433Z,98.40
2022-08-09T19:10:55.170Z,98.70
2022-08-09T19:13:38.502Z,98.50
2022-08-09T19:16:18.309Z,98.70
2022-08-09T19:18:55.494Z,98.80
2022-08-09T19:21:52.412Z,98.90
2022-08-09T19:24:33.078Z,98.90
2022-08-09T19:27:03.187Z,98.80
2022-08-09T19:29:59.852Z,99.40
2022-08-09T19:32:32.535Z,99.50
2022-08-09T19:35:00.287Z,99.90
2022-08-09T19:37:26.963Z,99.90
2022-08-09T19:40:04.079Z,99.70
2022-08-09T19:42:44.425Z,99.90
2022-08-09T19:45:22.453Z,99.90
2022-08-09T19:47:56.419Z,99.90
2022-08-09T19:50:50.249Z,99.90
2022-08-09T19:53:20.618Z,99.90
2022-08-09T19:56:02.075Z,99.90
2022-08-09T19:58:39.525Z,99.90
2022-08-09T20:01:06.150Z,99.90
2022-08-09T20:04:18.609Z,99.90
2022-08-09T20:06:31.302Z,99.90
2022-08-09T20:09:05.447Z,99.90
2022-08-09T20:11:33.826Z,99.90
2022-08-09T20:14:19.425Z,99.90
2022-08-09T20:16:50.247Z,99.90
2022-08-09T20:19:49.360Z,99.90
2022-08-09T20:22:15.114Z,99.90
2022-08-09T20:24:54.011Z,99.90
2022-08-09T20:27:29.257Z,99.90
2022-08-09T20:30:03.450Z,99.90
2022-08-09T20:32:33.896Z,99.90
2022-08-09T20:35:07.417Z,99.90
2022-08-09T20:38:22.200Z,99.90
2022-08-09T20:40:55.797Z,99.90
2022-08-09T20:43:28.970Z,99.90
2022-08-09T20:46:33.912Z,99.90
2022-08-09T20:48:49.606Z,99.90
2022-08-09T20:51:29.593Z,99.90
2022-08-09T20:54:07.860Z,99.90
2022-08-09T20:56:47.233Z,99.90
2022-08-09T20:59:17.286Z,99.90
2022-08-09T21:01:53.416Z,99.90
2022-08-09T21:05:51.486Z,99.90
2022-08-09T21:07:24.857Z,99.90
2022-08-09T21:10:06.088Z,99.90
2022-08-09T21:15:34.277Z,99.90
2022-08-09T21:18:23.237Z,99.90
2022-08-09T21:20:54.539Z,99.90
2022-08-09T21:23:47.670Z,99.90
2022-08-09T21:26:17.437Z,99.90
2022-08-09T21:28:55.329Z,99.90
2022-08-09T21:31:23.092Z,99.90
2022-08-09T21:33:52.700Z,99.90
2022-08-09T21:36:29.081Z,99.90
2022-08-09T21:38:59.225Z,99.90
2022-08-09T21:42:03.810Z,99.90
2022-08-09T21:44:34.648Z,99.90
2022-08-09T21:47:17.515Z,99.90
2022-08-09T21:49:45.236Z,99.90
2022-08-09T21:52:20.940Z,99.90
2022-08-09T21:55:03.427Z,99.90
2022-08-09T21:57:58.970Z,99.90
2022-08-09T22:00:39.445Z,99.90
2022-08-09T22:03:19.467Z,99.90
2022-08-09T22:05:58.437Z,99.90
2022-08-09T22:08:32.535Z,99.90
2022-08-09T22:11:49.842Z,99.90
2022-08-09T22:13:52.463Z,99.90
2022-08-09T22:16:25.484Z,99.90
2022-08-09T22:18:54.234Z,99.90
2022-08-09T22:21:45.139Z,99.90
2022-08-09T22:24:24.255Z,99.90
2022-08-09T22:26:59.470Z,99.90
2022-08-09T22:29:34.508Z,99.90
2022-08-09T22:32:30.101Z,99.90
2022-08-09T22:35:06.885Z,99.90
2022-08-09T22:38:06.934Z,99.90
2022-08-09T22:40:49.261Z,99.90
2022-08-09T22:44:03.010Z,99.90
2022-08-09T22:48:18.405Z,99.90
2022-08-09T22:49:17.448Z,99.90
2022-08-09T22:51:49.850Z,99.90
2022-08-09T22:54:30.516Z,99.90
2022-08-09T22:56:58.748Z,99.90
2022-08-09T22:59:58.257Z,99.90
2022-08-09T23:02:20.050Z,99.90
2022-08-09T23:04:54.712Z,99.90
2022-08-09T23:08:27.748Z,99.90
2022-08-09T23:10:43.969Z,99.90
2022-08-09T23:13:12.895Z,99.90
2022-08-09T23:16:03.079Z,99.90
2022-08-09T23:18:30.785Z,99.90
2022-08-09T23:21:04.450Z,99.90
2022-08-09T23:23:31.252Z,99.90
2022-08-09T23:26:04.496Z,99.90
2022-08-09T23:28:31.234Z,99.90
2022-08-09T23:31:04.449Z,99.90
2022-08-09T23:33:31.393Z,99.90
2022-08-09T23:36:05.635Z,99.90
2022-08-09T23:38:48.589Z,99.90
2022-08-09T23:41:28.308Z,99.90
2022-08-09T23:44:10.437Z,99.90
2022-08-09T23:46:43.460Z,99.90
2022-08-09T23:49:17.444Z,99.90
2022-08-09T23:51:58.464Z,99.90
2022-08-09T23:54:26.467Z,99.90
2022-08-09T23:57:00.482Z,99.90
2022-08-09T23:59:47.084Z,99.90
